Time;durP1;ratioP1;P1;durP2;ratioP2;P2;SDS_P1;SDS_P2;PMS_P1;PMS_P2;Temp;Humidity;BMP_temperature;BMP_pressure;BME280_temperature;BME280_humidity;BME280_pressure;Samples;Min_cycle;Max_cycle;Signal;HPM_P1;HPM_P2
2022/07/20 00:02:21;;;;;;;3.10;2.80;;;20.20;74.30;;;;;;5105892;27;20084;-55
2022/07/20 00:04:50;;;;;;;3.00;2.70;;;20.30;74.50;;;;;;5104715;27;20479;-56
2022/07/20 00:07:16;;;;;;;3.85;3.00;;;20.20;74.70;;;;;;5101820;27;20062;-55
2022/07/20 00:12:27;;;;;;;3.65;2.90;;;20.20;74.80;;;;;;5103879;27;20495;-55
2022/07/20 00:14:52;;;;;;;3.20;2.60;;;20.10;74.80;;;;;;5110778;28;20024;-55
2022/07/20 00:17:18;;;;;;;3.00;2.70;;;20.10;75.00;;;;;;5101036;28;20034;-55
2022/07/20 00:19:44;;;;;;;3.28;2.97;;;20.10;75.00;;;;;;5093945;28;20372;-55
2022/07/20 00:22:09;;;;;;;3.28;2.85;;;20.10;75.20;;;;;;5103761;28;20046;-56
2022/07/20 00:24:36;;;;;;;3.30;2.80;;;20.10;75.30;;;;;;5100296;28;20032;-55
2022/07/20 00:27:02;;;;;;;4.03;3.10;;;20.00;75.30;;;;;;5103890;28;20062;-55
2022/07/20 00:29:28;;;;;;;3.55;2.85;;;20.00;75.50;;;;;;5104114;28;20478;-55
2022/07/20 00:31:54;;;;;;;3.17;2.88;;;20.00;75.50;;;;;;5105301;27;20039;-55
2022/07/20 00:34:20;;;;;;;3.00;2.58;;;20.00;75.60;;;;;;5105646;28;20507;-55
2022/07/20 00:36:46;;;;;;;3.42;2.70;;;20.00;75.80;;;;;;5105231;28;20039;-54
2022/07/20 00:39:12;;;;;;;3.85;2.88;;;20.00;75.80;;;;;;5111816;28;20032;-55
2022/07/20 00:41:37;;;;;;;3.53;2.92;;;20.00;75.90;;;;;;5112319;28;20471;-56
2022/07/20 00:44:08;;;;;;;3.00;2.70;;;20.00;76.00;;;;;;5102490;28;20110;-56
2022/07/20 00:46:40;;;;;;;2.88;2.58;;;20.00;76.00;;;;;;5100357;27;20032;-55
2022/07/20 00:49:08;;;;;;;3.30;2.65;;;20.00;76.00;;;;;;5108080;27;20103;-55
2022/07/20 00:51:34;;;;;;;3.42;2.75;;;20.00;76.20;;;;;;5109194;27;20547;-55
2022/07/20 00:54:01;;;;;;;3.42;3.00;;;20.00;76.10;;;;;;5105448;28;20032;-56
2022/07/20 00:56:26;;;;;;;3.67;2.88;;;20.00;77.00;;;;;;5108864;28;20054;-55
2022/07/20 00:58:52;;;;;;;3.53;2.72;;;20.00;76.30;;;;;;5111182;27;20051;-56
2022/07/20 01:01:18;;;;;;;4.55;2.78;;;20.00;76.40;;;;;;5109485;27;20095;-56
2022/07/20 01:03:45;;;;;;;3.53;3.05;;;20.00;76.50;;;;;;5107507;28;20024;-56
2022/07/20 01:06:11;;;;;;;3.00;2.70;;;20.00;76.60;;;;;;5113385;27;20027;-56
2022/07/20 01:08:36;;;;;;;3.30;2.97;;;20.00;76.50;;;;;;5096549;27;20032;-55
2022/07/20 01:11:02;;;;;;;3.60;3.10;;;20.00;76.60;;;;;;5112643;28;20387;-56
2022/07/20 01:13:28;;;;;;;4.05;3.13;;;20.00;76.70;;;;;;5111504;27;20040;-55
2022/07/20 01:15:54;;;;;;;4.40;2.80;;;19.90;76.80;;;;;;5107800;28;20039;-56
2022/07/20 01:18:20;;;;;;;3.10;2.70;;;19.90;76.80;;;;;;5112035;27;20387;-55
2022/07/20 01:20:49;;;;;;;3.55;3.00;;;19.90;76.90;;;;;;5096995;28;20023;-55
2022/07/20 01:23:15;;;;;;;3.38;2.80;;;19.90;77.00;;;;;;5109718;28;20033;-55
2022/07/20 01:25:41;;;;;;;3.28;2.97;;;19.90;77.10;;;;;;5106177;28;20023;-55
2022/07/20 01:28:09;;;;;;;3.15;2.80;;;19.80;77.10;;;;;;5109667;27;20382;-55
2022/07/20 01:30:36;;;;;;;2.90;2.60;;;19.80;77.30;;;;;;5106796;28;20017;-56
2022/07/20 01:33:02;;;;;;;3.75;2.72;;;19.80;77.50;;;;;;5098559;28;20035;-55
2022/07/20 01:35:27;;;;;;;2.90;2.63;;;19.70;77.50;;;;;;5103401;28;20043;-55
2022/07/20 01:37:53;;;;;;;3.92;2.95;;;19.70;78.30;;;;;;5105583;28;20483;-55
2022/07/20 01:40:19;;;;;;;3.17;2.88;;;19.70;77.80;;;;;;5105327;28;20048;-56
2022/07/20 01:42:44;;;;;;;4.50;3.20;;;19.70;77.80;;;;;;5107658;27;20388;-55
2022/07/20 01:45:10;;;;;;;4.65;3.40;;;19.60;77.90;;;;;;5107499;28;20505;-55
2022/07/20 01:47:36;;;;;;;3.83;2.78;;;19.60;78.10;;;;;;5106163;28;20031;-56
2022/07/20 01:50:02;;;;;;;3.33;2.80;;;19.60;78.30;;;;;;5105718;28;20048;-55
2022/07/20 01:52:28;;;;;;;3.22;2.90;;;19.60;78.40;;;;;;5104657;28;20042;-55
2022/07/20 01:54:54;;;;;;;3.47;3.08;;;19.60;78.50;;;;;;5108309;28;20491;-56
2022/07/20 01:57:19;;;;;;;4.05;2.90;;;19.60;78.70;;;;;;5104676;27;20040;-55
2022/07/20 01:59:45;;;;;;;2.97;2.42;;;19.60;78.70;;;;;;5105403;28;20106;-56
2022/07/20 02:02:11;;;;;;;3.35;2.85;;;19.60;78.80;;;;;;5099976;28;20024;-55
2022/07/20 02:04:37;;;;;;;3.50;3.20;;;19.60;79.00;;;;;;5096146;27;20384;-55
2022/07/20 02:07:03;;;;;;;3.75;3.20;;;19.60;79.10;;;;;;5098815;28;20111;-55
2022/07/20 02:09:28;;;;;;;4.05;3.17;;;19.60;79.20;;;;;;5106674;28;20027;-55
2022/07/20 02:11:54;;;;;;;3.85;3.20;;;19.70;79.20;;;;;;5099581;28;20387;-54
2022/07/20 02:14:20;;;;;;;5.43;3.10;;;19.70;79.40;;;;;;5100028;28;20028;-56
2022/07/20 02:16:45;;;;;;;3.28;2.90;;;19.60;79.30;;;;;;5096723;28;20020;-56
2022/07/20 02:19:11;;;;;;;3.40;3.10;;;19.70;79.50;;;;;;5102925;28;20051;-55
2022/07/20 02:21:37;;;;;;;4.40;3.40;;;19.60;79.60;;;;;;5102653;28;20032;-55
2022/07/20 02:24:03;;;;;;;4.18;3.15;;;19.70;79.80;;;;;;5100885;28;20028;-56
2022/07/20 02:26:29;;;;;;;3.80;3.50;;;19.60;79.80;;;;;;5107996;28;20232;-55
2022/07/20 02:28:55;;;;;;;3.63;2.95;;;19.60;79.90;;;;;;5100126;28;20119;-56
2022/07/20 02:31:21;;;;;;;3.47;2.85;;;19.60;80.00;;;;;;5101352;28;20023;-56
2022/07/20 02:33:47;;;;;;;3.72;3.28;;;19.60;80.10;;;;;;5101418;28;20108;-55
2022/07/20 02:36:13;;;;;;;4.18;3.20;;;19.70;80.30;;;;;;5106236;28;20514;-55
2022/07/20 02:38:39;;;;;;;3.95;3.30;;;19.60;80.20;;;;;;5109333;28;20015;-55
2022/07/20 02:41:05;;;;;;;3.38;2.80;;;19.70;80.40;;;;;;5101882;28;20024;-55
2022/07/20 02:43:31;;;;;;;3.92;2.97;;;19.70;80.60;;;;;;5104771;28;20031;-54
2022/07/20 02:45:57;;;;;;;4.00;3.25;;;19.70;80.50;;;;;;5101604;28;20047;-55
2022/07/20 02:48:23;;;;;;;3.90;3.50;;;19.70;80.40;;;;;;5101067;28;20361;-56
2022/07/20 02:50:49;;;;;;;4.55;3.40;;;19.80;80.60;;;;;;5099792;28;20070;-56
2022/07/20 02:53:14;;;;;;;4.40;3.40;;;19.80;81.30;;;;;;5096513;28;20024;-55
2022/07/20 02:55:42;;;;;;;3.35;3.05;;;19.80;80.60;;;;;;5102052;28;20035;-55
2022/07/20 02:58:09;;;;;;;3.78;3.30;;;19.80;80.70;;;;;;5104411;28;20115;-55
2022/07/20 03:00:35;;;;;;;3.30;3.00;;;19.80;80.70;;;;;;5105050;28;20034;-55
2022/07/20 03:03:01;;;;;;;4.35;3.03;;;19.90;80.80;;;;;;5103148;28;20392;-56
2022/07/20 03:05:27;;;;;;;3.33;2.63;;;19.90;80.70;;;;;;5103157;28;20085;-55
2022/07/20 03:07:53;;;;;;;3.60;3.00;;;20.00;80.70;;;;;;5099203;28;20028;-56
2022/07/20 03:10:19;;;;;;;4.05;3.42;;;20.00;80.70;;;;;;5103349;28;20081;-55
2022/07/20 03:12:44;;;;;;;3.90;3.15;;;20.10;80.60;;;;;;5107601;28;20475;-56
2022/07/20 03:15:11;;;;;;;4.65;3.10;;;20.20;80.60;;;;;;5105162;28;20024;-56
2022/07/20 03:17:47;;;;;;;3.50;3.20;;;20.20;80.40;;;;;;5104783;28;20028;-55
2022/07/20 03:20:19;;;;;;;3.50;3.08;;;20.30;80.20;;;;;;5100824;28;20472;-55
2022/07/20 03:22:44;;;;;;;3.63;2.90;;;20.30;80.20;;;;;;5100603;28;20035;-56
2022/07/20 03:25:10;;;;;;;3.63;3.28;;;20.40;80.20;;;;;;5099417;28;20024;-55
2022/07/20 03:27:37;;;;;;;3.85;3.50;;;20.40;80.20;;;;;;5104294;28;20028;-56
2022/07/20 03:30:04;;;;;;;3.47;3.17;;;20.50;80.40;;;;;;5105230;28;20024;-56
2022/07/20 03:32:30;;;;;;;3.38;3.08;;;20.60;81.50;;;;;;5100953;28;20497;-55
2022/07/20 03:34:55;;;;;;;4.30;3.55;;;20.70;81.30;;;;;;5105982;28;20102;-55
2022/07/20 03:37:21;;;;;;;4.90;3.85;;;20.90;81.70;;;;;;5106258;28;20035;-56
2022/07/20 03:39:47;;;;;;;3.90;3.20;;;21.00;81.70;;;;;;5109920;28;20024;-55
2022/07/20 03:42:13;;;;;;;4.78;3.33;;;21.20;82.00;;;;;;5111363;28;20027;-56
2022/07/20 03:44:39;;;;;;;4.72;3.47;;;21.50;82.60;;;;;;5109264;27;20038;-56
2022/07/20 03:47:04;;;;;;;3.58;3.22;;;21.70;82.80;;;;;;5112535;28;20047;-55
2022/07/20 03:49:30;;;;;;;3.78;3.20;;;22.10;82.70;;;;;;5109623;28;20052;-56
2022/07/20 03:51:55;;;;;;;5.45;3.58;;;22.50;82.50;;;;;;5098202;27;20155;-55
2022/07/20 03:54:21;;;;;;;3.33;3.03;;;23.00;81.80;;;;;;5100671;28;20024;-56
2022/07/20 03:56:47;;;;;;;3.40;2.92;;;23.60;80.90;;;;;;5103785;27;20027;-55
2022/07/20 03:59:12;;;;;;;3.15;2.85;;;24.30;79.00;;;;;;5108754;27;20380;-55
2022/07/20 04:01:39;;;;;;;3.22;2.90;;;25.10;77.10;;;;;;5097556;28;20057;-56
2022/07/20 04:04:05;;;;;;;3.78;2.80;;;26.00;75.00;;;;;;5104730;28;20088;-55
2022/07/20 04:06:31;;;;;;;3.33;2.80;;;26.80;72.40;;;;;;5103154;28;20081;-56
2022/07/20 04:08:56;;;;;;;2.40;2.20;;;27.50;70.70;;;;;;5101164;28;20024;-56
2022/07/20 04:11:22;;;;;;;2.97;2.53;;;28.20;69.00;;;;;;5104398;28;20079;-56
2022/07/20 04:13:48;;;;;;;2.63;2.42;;;28.90;67.50;;;;;;5104309;28;20028;-56
2022/07/20 04:16:14;;;;;;;2.85;2.45;;;29.50;66.10;;;;;;5108156;27;20254;-56
2022/07/20 04:18:40;;;;;;;3.05;2.47;;;30.10;64.90;;;;;;5103305;28;20080;-56
2022/07/20 04:21:05;;;;;;;3.03;2.40;;;30.70;63.60;;;;;;5107203;28;20076;-56
2022/07/20 04:23:31;;;;;;;3.55;2.80;;;31.30;62.40;;;;;;5099144;28;20434;-56
2022/07/20 04:25:57;;;;;;;3.67;2.80;;;31.90;61.20;;;;;;5104820;27;20410;-56
2022/07/20 04:28:23;;;;;;;3.58;2.70;;;32.50;60.20;;;;;;5108634;28;20069;-56
2022/07/20 04:30:48;;;;;;;3.10;2.70;;;33.00;59.20;;;;;;5100963;27;20028;-57
2022/07/20 04:33:14;;;;;;;3.63;2.63;;;33.50;58.10;;;;;;5104522;28;20043;-56
2022/07/20 04:35:40;;;;;;;2.95;2.65;;;33.90;56.90;;;;;;5106915;28;20038;-56
2022/07/20 04:38:05;;;;;;;3.42;2.72;;;34.20;56.00;;;;;;5109984;28;20118;-56
2022/07/20 04:40:31;;;;;;;2.65;2.42;;;34.50;55.30;;;;;;5109572;28;20047;-56
2022/07/20 04:42:57;;;;;;;3.00;2.65;;;34.70;54.80;;;;;;5108354;28;20030;-57
2022/07/20 04:45:22;;;;;;;2.08;1.98;;;35.00;54.20;;;;;;5106826;28;20494;-56
2022/07/20 04:47:48;;;;;;;2.38;2.13;;;35.30;53.80;;;;;;5113447;28;20073;-56
2022/07/20 04:50:13;;;;;;;2.78;1.88;;;35.50;53.50;;;;;;5108201;28;20044;-56
2022/07/20 04:52:40;;;;;;;2.45;2.25;;;35.80;53.00;;;;;;5099498;28;20012;-57
2022/07/20 04:55:07;;;;;;;2.30;2.10;;;36.00;52.40;;;;;;5101792;28;20040;-57
2022/07/20 04:57:32;;;;;;;2.67;2.33;;;36.10;51.90;;;;;;5099492;28;20111;-57
2022/07/20 04:59:58;;;;;;;2.70;2.50;;;36.30;51.80;;;;;;5106358;28;20312;-57
2022/07/20 05:02:24;;;;;;;3.35;2.30;;;36.50;51.30;;;;;;5105800;28;20402;-57
2022/07/20 05:04:49;;;;;;;3.15;2.13;;;36.70;51.20;;;;;;5108605;28;20020;-57
2022/07/20 05:07:15;;;;;;;2.55;2.33;;;36.90;50.80;;;;;;5110419;28;20432;-57
2022/07/20 05:09:41;;;;;;;2.35;2.15;;;37.00;50.50;;;;;;5109824;28;20399;-56
2022/07/20 05:12:07;;;;;;;3.25;2.55;;;37.20;50.10;;;;;;5106433;27;20035;-57
2022/07/20 05:14:33;;;;;;;2.83;2.30;;;37.20;49.70;;;;;;5102567;27;20028;-57
2022/07/20 05:16:59;;;;;;;2.58;2.30;;;37.30;49.30;;;;;;5104783;27;20028;-57
2022/07/20 05:19:24;;;;;;;2.30;2.10;;;37.30;49.30;;;;;;5108163;27;20373;-57
2022/07/20 05:21:50;;;;;;;2.20;1.98;;;37.30;49.20;;;;;;5099003;27;20027;-57
2022/07/20 05:24:16;;;;;;;2.70;2.42;;;37.30;49.70;;;;;;5098737;27;20043;-57
2022/07/20 05:26:41;;;;;;;2.58;2.38;;;37.30;48.50;;;;;;5094869;28;20680;-57
2022/07/20 05:29:07;;;;;;;2.90;2.60;;;37.30;47.80;;;;;;5102897;27;20114;-57
2022/07/20 05:31:33;;;;;;;2.50;2.30;;;37.10;47.30;;;;;;5109526;27;20161;-57
2022/07/20 05:33:58;;;;;;;3.10;2.78;;;36.60;47.00;;;;;;5106185;27;20517;-57
2022/07/20 05:36:24;;;;;;;2.80;2.50;;;35.90;47.50;;;;;;5096518;27;20050;-57
2022/07/20 05:38:50;;;;;;;3.08;2.60;;;35.20;48.10;;;;;;5104563;27;20115;-57
2022/07/20 05:41:16;;;;;;;3.83;2.80;;;34.30;48.90;;;;;;5109902;27;20107;-56
2022/07/20 05:43:41;;;;;;;3.30;2.88;;;33.40;49.70;;;;;;5104908;27;20024;-56
2022/07/20 05:46:07;;;;;;;3.83;2.65;;;32.60;50.70;;;;;;5097456;28;20075;-57
2022/07/20 05:48:33;;;;;;;3.20;2.70;;;31.90;51.50;;;;;;5092171;27;20403;-56
2022/07/20 05:50:59;;;;;;;2.78;2.45;;;31.20;52.40;;;;;;5092294;27;20040;-56
2022/07/20 05:53:25;;;;;;;4.45;3.05;;;30.60;53.10;;;;;;5086718;27;20407;-57
2022/07/20 05:55:51;;;;;;;3.55;3.10;;;30.10;53.80;;;;;;5092271;28;20043;-55
2022/07/20 05:58:16;;;;;;;3.53;3.13;;;29.70;54.60;;;;;;5089722;27;20039;-56
2022/07/20 06:00:42;;;;;;;2.75;2.55;;;29.30;55.20;;;;;;5083841;27;20869;-57
2022/07/20 06:03:08;;;;;;;3.28;2.85;;;29.00;55.70;;;;;;5086247;28;20032;-57
2022/07/20 06:05:34;;;;;;;2.83;2.60;;;28.70;56.40;;;;;;5094487;27;20593;-57
2022/07/20 06:08:01;;;;;;;4.18;3.35;;;28.50;56.80;;;;;;5090066;27;20035;-57
2022/07/20 06:10:29;;;;;;;3.15;2.80;;;28.20;57.20;;;;;;5093932;27;20077;-56
2022/07/20 06:12:55;;;;;;;3.58;2.88;;;28.00;57.80;;;;;;5083670;27;21756;-57
2022/07/20 06:15:22;;;;;;;3.72;3.00;;;27.80;58.10;;;;;;5093337;27;20032;-56
2022/07/20 06:17:48;;;;;;;3.47;2.88;;;27.60;58.40;;;;;;5085162;27;20039;-57
2022/07/20 06:20:15;;;;;;;3.53;2.88;;;27.40;58.80;;;;;;5083851;27;20032;-58
2022/07/20 06:22:42;;;;;;;4.18;3.28;;;27.30;59.10;;;;;;5081179;28;20026;-56
2022/07/20 06:25:09;;;;;;;3.42;3.00;;;27.10;59.50;;;;;;5087665;27;20195;-56
2022/07/20 06:27:35;;;;;;;3.33;3.00;;;27.00;60.00;;;;;;5087223;28;20042;-57
2022/07/20 06:30:03;;;;;;;3.60;3.03;;;26.90;60.10;;;;;;5096295;27;20390;-56
2022/07/20 06:32:28;;;;;;;4.00;3.05;;;26.80;60.40;;;;;;5086515;28;20605;-57
2022/07/20 06:34:54;;;;;;;5.30;3.20;;;26.70;60.80;;;;;;5083804;28;20043;-56
2022/07/20 06:37:20;;;;;;;3.10;2.80;;;26.60;60.90;;;;;;5085322;28;20031;-56
2022/07/20 06:39:46;;;;;;;3.40;3.10;;;26.60;61.00;;;;;;5090538;27;20058;-56
2022/07/20 06:42:11;;;;;;;3.60;3.08;;;26.50;60.90;;;;;;5081567;28;20083;-56
2022/07/20 06:44:37;;;;;;;3.47;2.97;;;26.50;61.30;;;;;;5080557;28;20098;-57
2022/07/20 06:47:04;;;;;;;3.15;2.85;;;26.40;61.60;;;;;;5086506;28;20043;-57
2022/07/20 06:49:31;;;;;;;2.65;2.45;;;26.30;61.80;;;;;;5087035;28;20066;-58
2022/07/20 06:51:57;;;;;;;3.30;2.83;;;26.30;62.30;;;;;;5085426;28;20161;-57
2022/07/20 06:54:23;;;;;;;3.45;3.15;;;26.30;62.30;;;;;;5089723;28;20062;-57
2022/07/20 06:56:48;;;;;;;3.75;2.65;;;26.30;62.50;;;;;;5086036;28;20038;-56
2022/07/20 06:59:14;;;;;;;3.10;2.83;;;26.30;62.60;;;;;;5084045;28;20035;-57
2022/07/20 07:01:42;;;;;;;3.92;3.15;;;26.20;62.50;;;;;;5070920;28;20359;-56
2022/07/20 07:04:07;;;;;;;2.80;2.60;;;26.20;62.90;;;;;;5077859;28;20044;-58
2022/07/20 07:06:33;;;;;;;2.95;2.65;;;26.20;62.80;;;;;;5071485;28;20365;-57
2022/07/20 07:08:59;;;;;;;2.90;2.67;;;26.10;63.00;;;;;;5076716;28;20027;-58
2022/07/20 07:11:26;;;;;;;3.35;2.72;;;26.10;63.10;;;;;;5072119;28;20708;-56
2022/07/20 07:13:52;;;;;;;3.30;3.00;;;26.00;63.30;;;;;;5079043;28;20057;-56
2022/07/20 07:16:17;;;;;;;3.40;2.90;;;26.00;63.40;;;;;;5087275;27;20023;-56
2022/07/20 07:18:43;;;;;;;3.85;3.03;;;26.00;63.50;;;;;;5078542;27;20461;-56
2022/07/20 07:21:09;;;;;;;3.45;2.92;;;25.90;63.50;;;;;;5079425;27;20035;-56
2022/07/20 07:23:34;;;;;;;3.15;2.80;;;25.90;63.50;;;;;;5093483;27;20116;-56
2022/07/20 07:26:00;;;;;;;3.53;2.67;;;25.80;63.70;;;;;;5092141;27;20506;-57
2022/07/20 07:28:26;;;;;;;2.88;2.42;;;25.80;64.10;;;;;;5086992;27;20028;-56
2022/07/20 07:30:52;;;;;;;3.88;3.03;;;25.80;64.20;;;;;;5085319;27;20020;-56
2022/07/20 07:33:25;;;;;;;3.47;3.17;;;25.80;64.30;;;;;;5091732;27;20023;-55
2022/07/20 07:35:54;;;;;;;2.60;2.40;;;25.70;64.30;;;;;;5090594;27;20036;-55
2022/07/20 07:38:21;;;;;;;3.45;2.70;;;25.70;64.20;;;;;;5085208;27;20042;-58
2022/07/20 07:40:47;;;;;;;3.25;2.70;;;25.70;64.30;;;;;;5079501;27;20118;-56
2022/07/20 07:43:13;;;;;;;3.03;2.70;;;25.60;64.50;;;;;;5090899;27;20095;-57
2022/07/20 07:45:39;;;;;;;3.92;3.00;;;25.60;64.40;;;;;;5080233;27;20027;-58
2022/07/20 07:48:09;;;;;;;3.53;2.80;;;25.60;64.70;;;;;;5086992;27;20032;-58
2022/07/20 07:50:37;;;;;;;2.90;2.60;;;25.70;64.60;;;;;;5074844;28;20056;-57
2022/07/20 07:53:03;;;;;;;2.90;2.60;;;25.60;64.50;;;;;;5081379;27;21217;-55
2022/07/20 07:55:29;;;;;;;3.10;2.80;;;25.60;64.80;;;;;;5080130;27;20038;-56
2022/07/20 07:57:55;;;;;;;2.72;2.50;;;25.60;64.40;;;;;;5084189;27;20031;-57
2022/07/20 08:00:21;;;;;;;2.92;2.63;;;25.60;64.50;;;;;;5080447;27;20767;-56
2022/07/20 08:02:48;;;;;;;3.22;2.42;;;25.60;64.60;;;;;;5082799;27;20095;-57
2022/07/20 08:05:14;;;;;;;3.13;2.60;;;25.60;64.50;;;;;;5081000;27;20067;-58
2022/07/20 08:07:40;;;;;;;2.88;2.65;;;25.60;64.00;;;;;;5080076;27;20035;-57
2022/07/20 08:10:07;;;;;;;3.35;2.80;;;25.50;63.90;;;;;;5083023;27;20032;-56
2022/07/20 08:12:34;;;;;;;3.17;2.70;;;25.50;64.10;;;;;;5083498;27;20019;-56
2022/07/20 08:15:00;;;;;;;2.53;2.33;;;25.40;64.20;;;;;;5082564;27;20120;-58
2022/07/20 08:17:25;;;;;;;2.55;2.35;;;25.50;64.40;;;;;;5078459;27;20059;-57
2022/07/20 08:19:51;;;;;;;3.10;2.80;;;25.40;64.40;;;;;;5079477;27;20510;-56
2022/07/20 08:22:18;;;;;;;3.67;2.90;;;25.40;64.50;;;;;;5079130;27;20038;-55
2022/07/20 08:24:44;;;;;;;3.00;2.70;;;25.40;64.60;;;;;;5079126;27;20114;-57
2022/07/20 08:27:09;;;;;;;2.95;2.65;;;25.40;64.60;;;;;;5083276;27;20038;-57
2022/07/20 08:29:35;;;;;;;2.80;2.60;;;25.40;64.50;;;;;;5083642;27;20020;-57
2022/07/20 08:32:01;;;;;;;2.75;2.55;;;25.40;64.60;;;;;;5076394;27;20059;-56
2022/07/20 08:34:27;;;;;;;2.78;2.58;;;25.40;64.60;;;;;;5075174;27;20426;-57
2022/07/20 08:36:52;;;;;;;3.03;2.50;;;25.30;64.40;;;;;;5077907;27;20043;-57
2022/07/20 08:39:18;;;;;;;2.92;2.63;;;25.30;64.20;;;;;;5083778;27;20028;-56
2022/07/20 08:41:45;;;;;;;2.72;2.53;;;25.20;64.30;;;;;;5086607;27;20043;-56
2022/07/20 08:44:11;;;;;;;2.58;2.38;;;25.20;64.40;;;;;;5077829;27;20063;-56
2022/07/20 08:46:37;;;;;;;2.50;2.30;;;25.20;64.50;;;;;;5079295;27;20123;-57
2022/07/20 08:49:03;;;;;;;2.53;2.33;;;25.20;64.70;;;;;;5083007;27;20037;-56
2022/07/20 08:51:29;;;;;;;3.67;2.60;;;25.20;64.70;;;;;;5081575;27;20356;-57
2022/07/20 08:53:56;;;;;;;2.63;2.42;;;25.20;64.60;;;;;;5081722;27;20023;-57
2022/07/20 08:56:23;;;;;;;2.65;2.45;;;25.20;64.40;;;;;;5074034;27;20027;-56
2022/07/20 08:58:49;;;;;;;2.60;2.40;;;25.20;64.30;;;;;;5061695;27;20732;-57
2022/07/20 09:01:16;;;;;;;2.38;2.22;;;25.20;64.40;;;;;;5065247;27;20960;-57
2022/07/20 09:03:44;;;;;;;2.58;2.30;;;25.10;64.30;;;;;;5078376;27;20039;-56
2022/07/20 09:06:11;;;;;;;2.67;2.47;;;25.10;64.00;;;;;;5072848;27;20030;-57
2022/07/20 09:09:00;;;;;;;2.03;1.83;;;25.00;64.00;;;;;;5080376;27;20547;-55
2022/07/20 09:11:25;;;;;;;2.72;2.40;;;25.00;63.90;;;;;;5068321;27;20028;-57
2022/07/20 09:13:51;;;;;;;2.35;2.15;;;24.90;64.00;;;;;;5077327;27;20488;-56
2022/07/20 09:16:31;;;;;;;1.90;1.80;;;24.90;64.00;;;;;;5075135;27;20028;-57
2022/07/20 09:18:56;;;;;;;1.95;1.85;;;24.90;63.90;;;;;;5069784;27;20047;-58
2022/07/20 09:21:29;;;;;;;2.30;2.05;;;24.90;63.60;;;;;;5078915;27;20028;-57
2022/07/20 09:23:56;;;;;;;2.00;1.80;;;24.90;63.40;;;;;;5075025;27;20034;-57
2022/07/20 09:26:24;;;;;;;2.13;1.92;;;24.80;63.50;;;;;;5060277;28;20537;-57
2022/07/20 09:28:55;;;;;;;2.05;1.92;;;24.80;63.50;;;;;;5073827;27;20693;-57
2022/07/20 09:31:39;;;;;;;2.10;1.90;;;24.80;63.60;;;;;;5072866;27;20709;-56
2022/07/20 09:34:13;;;;;;;2.08;1.90;;;24.80;63.60;;;;;;5068076;27;20244;-57
2022/07/20 09:36:44;;;;;;;2.00;1.83;;;24.80;63.60;;;;;;5067791;27;20403;-60
2022/07/20 09:39:19;;;;;;;1.58;1.50;;;24.80;63.60;;;;;;5063755;27;20035;-57
2022/07/20 09:41:50;;;;;;;1.95;1.85;;;24.80;63.60;;;;;;5066705;27;20534;-59
2022/07/20 09:44:22;;;;;;;1.85;1.75;;;24.80;63.20;;;;;;5081543;27;20028;-59
2022/07/20 09:46:48;;;;;;;2.17;1.98;;;24.80;63.30;;;;;;5084283;27;20020;-57
2022/07/20 09:49:13;;;;;;;2.00;1.70;;;24.80;63.30;;;;;;5042468;28;20744;-58
2022/07/20 09:51:44;;;;;;;1.80;1.70;;;24.80;63.50;;;;;;5086153;27;20024;-57
2022/07/20 09:54:12;;;;;;;1.80;1.70;;;24.80;63.40;;;;;;5083100;28;20028;-57
2022/07/20 09:56:41;;;;;;;1.73;1.63;;;24.80;63.50;;;;;;5073266;28;20035;-57
2022/07/20 09:59:10;;;;;;;2.65;2.28;;;24.80;63.40;;;;;;5055880;28;20024;-58
2022/07/20 10:01:40;;;;;;;1.95;1.85;;;24.80;63.40;;;;;;5075522;27;20494;-58
2022/07/20 10:04:10;;;;;;;1.98;1.88;;;24.80;63.50;;;;;;5074368;27;20020;-58
2022/07/20 10:06:39;;;;;;;1.88;1.77;;;24.80;63.60;;;;;;5076858;28;20066;-58
2022/07/20 10:09:06;;;;;;;1.50;1.40;;;24.80;63.70;;;;;;5055197;28;20504;-57
2022/07/20 10:11:33;;;;;;;2.08;1.88;;;24.80;63.80;;;;;;5080969;27;20425;-57
2022/07/20 10:14:02;;;;;;;1.98;1.80;;;24.80;63.80;;;;;;5072060;28;20035;-58
2022/07/20 10:16:54;;;;;;;3.03;1.90;;;24.80;63.80;;;;;;5066600;27;20061;-57
2022/07/20 10:19:43;;;;;;;1.75;1.65;;;24.80;63.80;;;;;;5042339;28;20786;-57
2022/07/20 10:22:09;;;;;;;1.88;1.77;;;24.80;63.90;;;;;;5076402;27;20844;-59
2022/07/20 10:24:37;;;;;;;1.98;1.75;;;24.90;63.90;;;;;;5073499;28;20032;-58
2022/07/20 10:27:09;;;;;;;2.05;1.95;;;24.80;64.20;;;;;;5076529;28;20016;-58
2022/07/20 10:29:40;;;;;;;1.88;1.77;;;24.90;64.30;;;;;;5080946;28;20042;-58
2022/07/20 10:32:22;;;;;;;2.30;1.80;;;24.90;64.10;;;;;;5069939;27;20057;-56
2022/07/20 10:34:50;;;;;;;1.90;1.80;;;25.00;64.00;;;;;;5069757;27;20039;-56
2022/07/20 10:37:44;;;;;;;1.60;1.50;;;25.00;64.00;;;;;;5076594;28;20043;-57
2022/07/20 10:40:15;;;;;;;1.80;1.70;;;25.00;63.90;;;;;;5066339;28;20032;-57
2022/07/20 10:42:50;;;;;;;1.92;1.83;;;25.00;63.90;;;;;;5055376;28;20040;-57
2022/07/20 10:45:23;;;;;;;3.35;2.40;;;25.00;63.50;;;;;;5078359;28;20877;-62
2022/07/20 10:47:58;;;;;;;2.35;2.15;;;25.00;63.40;;;;;;5086943;28;20023;-58
2022/07/20 10:50:27;;;;;;;2.30;2.17;;;25.00;63.20;;;;;;5086287;27;20092;-58
2022/07/20 10:53:17;;;;;;;2.97;2.38;;;25.00;62.70;;;;;;5073045;27;20029;-58
2022/07/20 10:55:47;;;;;;;2.40;2.10;;;25.00;61.90;;;;;;5067096;27;20514;-58
2022/07/20 10:58:19;;;;;;;2.30;2.10;;;25.10;61.40;;;;;;5072823;27;20036;-60
2022/07/20 11:00:54;;;;;;;1.80;1.70;;;25.10;61.10;;;;;;5069246;27;20629;-56
2022/07/20 11:03:23;;;;;;;2.30;2.10;;;25.10;60.60;;;;;;5075744;27;20031;-58
2022/07/20 11:06:01;;;;;;;2.10;1.90;;;25.20;60.90;;;;;;5070940;27;21292;-58
2022/07/20 11:08:27;;;;;;;2.25;2.00;;;25.20;60.30;;;;;;5074523;27;20055;-59
2022/07/20 11:10:54;;;;;;;3.10;2.15;;;25.30;60.40;;;;;;5081350;28;20024;-58
2022/07/20 11:13:19;;;;;;;2.42;2.22;;;25.40;60.20;;;;;;5079830;27;20034;-58
2022/07/20 11:15:46;;;;;;;2.20;2.03;;;25.40;59.70;;;;;;5071820;27;20028;-59
2022/07/20 11:18:15;;;;;;;2.33;2.13;;;25.50;59.50;;;;;;5087755;27;20038;-59
2022/07/20 11:20:51;;;;;;;1.90;1.80;;;25.50;59.30;;;;;;5082866;27;20031;-59
2022/07/20 11:23:20;;;;;;;2.75;2.00;;;25.60;59.30;;;;;;5083314;27;20115;-59
2022/07/20 11:25:53;;;;;;;2.40;2.20;;;25.70;59.50;;;;;;5080203;27;20165;-59
2022/07/20 11:28:22;;;;;;;2.20;2.00;;;25.70;59.20;;;;;;5076805;27;20078;-59
2022/07/20 11:30:49;;;;;;;3.55;2.47;;;25.80;59.10;;;;;;5072426;27;20123;-58
2022/07/20 11:33:42;;;;;;;3.17;2.50;;;25.80;58.90;;;;;;5084964;27;20031;-57
2022/07/20 11:36:12;;;;;;;2.65;2.40;;;25.80;58.60;;;;;;5088648;27;20040;-59
2022/07/20 11:38:43;;;;;;;2.40;2.20;;;25.80;58.40;;;;;;5061188;28;20031;-60
2022/07/20 11:41:12;;;;;;;2.58;2.17;;;25.80;58.30;;;;;;5084353;27;20044;-59
2022/07/20 11:43:39;;;;;;;2.83;2.10;;;25.90;58.10;;;;;;5090827;27;20120;-57
2022/07/20 11:46:15;;;;;;;3.25;2.13;;;25.80;57.90;;;;;;5062395;28;20759;-58
2022/07/20 11:48:42;;;;;;;2.92;2.13;;;25.90;58.00;;;;;;5080447;27;20019;-58
2022/07/20 11:51:09;;;;;;;2.50;2.30;;;25.90;58.00;;;;;;5078785;27;20035;-59
2022/07/20 11:53:40;;;;;;;2.38;2.17;;;25.80;58.00;;;;;;5067454;27;20032;-59
2022/07/20 11:56:15;;;;;;;2.70;2.40;;;25.90;58.20;;;;;;5062974;27;20071;-58
2022/07/20 11:58:42;;;;;;;2.90;2.60;;;25.90;58.00;;;;;;5065113;27;20028;-58
2022/07/20 12:01:10;;;;;;;2.85;2.40;;;25.90;57.90;;;;;;5043584;27;20118;-59
2022/07/20 12:03:39;;;;;;;2.58;2.38;;;26.00;57.90;;;;;;5065217;27;20039;-60
2022/07/20 12:06:08;;;;;;;2.95;2.40;;;26.00;57.80;;;;;;5075058;27;23450;-60
2022/07/20 12:08:34;;;;;;;3.65;2.72;;;26.10;57.40;;;;;;5067789;27;21401;-59
2022/07/20 12:11:00;;;;;;;2.97;2.45;;;26.10;57.20;;;;;;5081773;27;20046;-59
2022/07/20 12:13:26;;;;;;;2.92;2.38;;;26.10;57.20;;;;;;5076495;27;20511;-59
2022/07/20 12:16:11;;;;;;;3.28;2.30;;;26.20;57.10;;;;;;5081373;28;20031;-58
2022/07/20 12:18:50;;;;;;;2.35;2.08;;;26.20;57.10;;;;;;5075035;27;20059;-59
2022/07/20 12:21:25;;;;;;;2.70;2.25;;;26.30;57.40;;;;;;5082694;27;20038;-59
2022/07/20 12:23:55;;;;;;;2.50;2.30;;;26.30;57.10;;;;;;5079564;27;20035;-59
2022/07/20 12:26:28;;;;;;;2.67;2.42;;;26.30;57.00;;;;;;5078206;28;20032;-57
2022/07/20 12:28:56;;;;;;;3.22;2.70;;;26.40;57.20;;;;;;5079342;27;20054;-59
2022/07/20 12:31:25;;;;;;;2.58;2.15;;;26.40;57.10;;;;;;5072351;27;20635;-58
2022/07/20 12:34:07;;;;;;;3.40;2.90;;;26.40;57.00;;;;;;5072935;27;20066;-58
2022/07/20 12:36:45;;;;;;;3.47;2.78;;;26.40;56.90;;;;;;5083869;27;20150;-59
2022/07/20 12:39:14;;;;;;;2.95;2.65;;;26.40;57.00;;;;;;5081636;28;20028;-59
2022/07/20 12:41:41;;;;;;;3.15;2.60;;;26.40;56.80;;;;;;5081931;27;20036;-58
2022/07/20 12:44:29;;;;;;;2.65;2.45;;;26.50;57.00;;;;;;5081038;27;20675;-58
2022/07/20 12:46:56;;;;;;;3.03;2.47;;;26.50;56.80;;;;;;5079485;27;20050;-59
2022/07/20 12:49:25;;;;;;;2.80;2.50;;;26.60;56.70;;;;;;5075888;27;20636;-58
2022/07/20 12:51:51;;;;;;;4.32;3.17;;;26.70;56.60;;;;;;5074910;28;20031;-59
2022/07/20 12:54:18;;;;;;;3.40;2.42;;;26.70;56.50;;;;;;5072479;27;20039;-57